createdAt,value
2018-01-05T00:00:29.138Z,984.28
2018-01-05T00:01:09.705Z,984.35
2018-01-05T00:01:50.287Z,984.31
2018-01-05T00:02:30.858Z,984.31
2018-01-05T00:03:11.430Z,984.38
2018-01-05T00:03:52.021Z,984.37
2018-01-05T00:04:32.591Z,984.33
2018-01-05T00:05:13.168Z,984.35
2018-01-05T00:05:53.758Z,984.38
2018-01-05T00:06:34.334Z,984.49
2018-01-05T00:07:14.911Z,984.47
2018-01-05T00:07:55.471Z,984.47
2018-01-05T00:08:36.035Z,984.47
2018-01-05T00:09:16.607Z,984.4
2018-01-05T00:09:57.176Z,984.29
2018-01-05T00:10:37.745Z,984.32
2018-01-05T00:11:18.316Z,984.43
2018-01-05T00:11:58.882Z,984.49
2018-01-05T00:12:39.452Z,984.52
2018-01-05T00:13:20.020Z,984.52
2018-01-05T00:14:00.583Z,984.45
2018-01-05T00:14:41.146Z,984.48
2018-01-05T00:15:21.707Z,984.45
2018-01-05T00:16:02.277Z,984.49
2018-01-05T00:16:42.845Z,984.45
2018-01-05T00:17:23.399Z,984.44
2018-01-05T00:18:03.972Z,984.49
2018-01-05T00:18:44.545Z,984.47
2018-01-05T00:19:25.108Z,984.49
2018-01-05T00:20:05.681Z,984.48
2018-01-05T00:20:46.255Z,984.48
2018-01-05T00:21:26.865Z,984.39
2018-01-05T00:22:07.453Z,984.5
2018-01-05T00:22:48.011Z,984.64
2018-01-05T00:23:28.688Z,984.55
2018-01-05T00:24:09.240Z,984.59
2018-01-05T00:24:49.808Z,984.55
2018-01-05T00:25:30.385Z,984.58
2018-01-05T00:26:10.965Z,984.57
2018-01-05T00:26:51.532Z,984.59
2018-01-05T00:27:32.184Z,984.59
2018-01-05T00:28:12.726Z,984.57
2018-01-05T00:28:53.302Z,984.6
2018-01-05T00:29:33.857Z,984.53
2018-01-05T00:30:14.416Z,984.59
2018-01-05T00:30:54.974Z,984.56
2018-01-05T00:31:35.543Z,984.53
2018-01-05T00:32:16.471Z,984.57
2018-01-05T00:32:57.033Z,984.54
2018-01-05T00:33:37.622Z,984.5
2018-01-05T00:34:18.240Z,984.6
2018-01-05T00:34:58.784Z,984.5
2018-01-05T00:35:39.356Z,984.49
2018-01-05T00:36:19.962Z,984.56
2018-01-05T00:37:00.537Z,984.51
2018-01-05T00:37:41.121Z,984.53
2018-01-05T00:38:21.690Z,984.56
2018-01-05T00:39:02.263Z,984.55
2018-01-05T00:39:42.822Z,984.6
2018-01-05T00:40:23.448Z,984.58
2018-01-05T00:41:04.035Z,984.65
2018-01-05T00:41:44.582Z,984.63
2018-01-05T00:42:25.164Z,984.76
2018-01-05T00:43:05.732Z,984.75
2018-01-05T00:43:46.311Z,984.75
2018-01-05T00:44:26.883Z,984.81
2018-01-05T00:45:07.442Z,984.88
2018-01-05T00:45:48.020Z,984.92
2018-01-05T00:46:28.597Z,984.83
2018-01-05T00:47:09.152Z,984.82
2018-01-05T00:47:49.716Z,984.8
2018-01-05T00:48:30.282Z,984.91
2018-01-05T00:49:10.849Z,984.86
2018-01-05T00:49:51.410Z,984.88
2018-01-05T00:50:31.981Z,984.89
2018-01-05T00:51:12.541Z,984.85
2018-01-05T00:51:53.109Z,984.87
2018-01-05T00:52:33.669Z,984.85
2018-01-05T00:53:14.256Z,984.87
2018-01-05T00:53:54.814Z,984.91
2018-01-05T00:54:35.386Z,984.94
2018-01-05T00:55:16.020Z,984.88
2018-01-05T00:55:56.576Z,984.92
2018-01-05T00:56:37.149Z,984.94
2018-01-05T00:57:17.719Z,984.93
2018-01-05T00:57:58.277Z,984.94
2018-01-05T00:58:38.840Z,984.98
2018-01-05T00:59:19.415Z,984.94
2018-01-05T00:59:59.982Z,984.95
2018-01-05T01:00:40.558Z,984.99
2018-01-05T01:01:21.133Z,985.05
2018-01-05T01:02:01.695Z,985.05
2018-01-05T01:02:42.273Z,985.09
2018-01-05T01:03:22.835Z,985.1
2018-01-05T01:04:03.399Z,985.11
2018-01-05T01:04:43.972Z,985.08
2018-01-05T01:05:24.540Z,985.15
2018-01-05T01:06:05.116Z,985.11
2018-01-05T01:06:45.683Z,985.16
2018-01-05T01:07:26.263Z,985.15
2018-01-05T01:08:06.833Z,985.22
2018-01-05T01:08:47.398Z,985.23
2018-01-05T01:09:27.966Z,985.25
2018-01-05T01:10:08.534Z,985.26
2018-01-05T01:10:49.104Z,985.26
2018-01-05T01:11:29.663Z,985.26
2018-01-05T01:12:10.246Z,985.23
2018-01-05T01:12:50.829Z,985.24
2018-01-05T01:13:31.383Z,985.25
2018-01-05T01:14:11.949Z,985.21
2018-01-05T01:14:52.524Z,985.25
2018-01-05T01:15:33.074Z,985.25
2018-01-05T01:16:13.633Z,985.29
2018-01-05T01:16:54.199Z,985.29
2018-01-05T01:17:34.758Z,985.35
2018-01-05T01:18:15.311Z,985.28
2018-01-05T01:18:55.875Z,985.36
2018-01-05T01:19:36.440Z,985.35
2018-01-05T01:20:17.048Z,985.36
2018-01-05T01:20:57.616Z,985.32
2018-01-05T01:21:38.170Z,985.36
2018-01-05T01:22:18.732Z,985.36
2018-01-05T01:22:59.304Z,985.38
2018-01-05T01:23:39.870Z,985.35
2018-01-05T01:24:20.424Z,985.36
2018-01-05T01:25:00.984Z,985.41
2018-01-05T01:25:41.546Z,985.42
2018-01-05T01:26:22.107Z,985.36
2018-01-05T01:27:02.678Z,985.39
2018-01-05T01:27:43.240Z,985.41
2018-01-05T01:28:23.800Z,985.37
2018-01-05T01:29:04.383Z,985.4
2018-01-05T01:29:44.932Z,985.48
2018-01-05T01:30:25.507Z,985.44
2018-01-05T01:31:06.064Z,985.45
2018-01-05T01:31:46.637Z,985.46
2018-01-05T01:32:27.201Z,985.48
2018-01-05T01:33:07.786Z,985.45
2018-01-05T01:33:48.363Z,985.53
2018-01-05T01:34:28.944Z,985.5
2018-01-05T01:35:09.503Z,985.51
2018-01-05T01:35:50.063Z,985.51
2018-01-05T01:36:30.625Z,985.49
2018-01-05T01:37:11.184Z,985.51
2018-01-05T01:37:51.751Z,985.53
2018-01-05T01:38:32.320Z,985.5
2018-01-05T01:39:12.882Z,985.5
2018-01-05T01:39:53.443Z,985.47
2018-01-05T01:40:34.010Z,985.52
2018-01-05T01:41:14.575Z,985.51
2018-01-05T01:41:55.128Z,985.5
2018-01-05T01:42:35.695Z,985.53
2018-01-05T01:43:16.261Z,985.56
2018-01-05T01:43:56.838Z,985.57
2018-01-05T01:44:37.402Z,985.61
2018-01-05T01:45:17.972Z,985.58
2018-01-05T01:45:58.530Z,985.58
2018-01-05T01:46:39.094Z,985.59
2018-01-05T01:47:19.695Z,985.59
2018-01-05T01:48:00.253Z,985.59
2018-01-05T01:48:40.830Z,985.56
2018-01-05T01:49:21.394Z,985.6
2018-01-05T01:50:01.952Z,985.58
2018-01-05T01:50:42.522Z,985.64
2018-01-05T01:51:23.092Z,985.61
2018-01-05T01:52:03.658Z,985.63
2018-01-05T01:52:44.218Z,985.63
2018-01-05T01:53:24.791Z,985.62
2018-01-05T01:54:05.364Z,985.62
2018-01-05T01:54:45.926Z,985.65
2018-01-05T01:55:26.487Z,985.65
2018-01-05T01:56:07.059Z,985.62
2018-01-05T01:56:47.627Z,985.66
2018-01-05T01:57:28.205Z,985.7
2018-01-05T01:58:08.760Z,985.66
2018-01-05T01:58:49.318Z,985.7
2018-01-05T01:59:29.881Z,985.7
2018-01-05T02:00:10.451Z,985.66
2018-01-05T02:00:51.019Z,985.71
2018-01-05T02:01:31.584Z,985.75
2018-01-05T02:02:12.153Z,985.77
2018-01-05T02:02:52.776Z,985.77
2018-01-05T02:03:33.283Z,985.79
2018-01-05T02:04:13.849Z,985.74
2018-01-05T02:04:54.414Z,985.78
2018-01-05T02:05:34.987Z,985.82
2018-01-05T02:06:15.545Z,985.77
2018-01-05T02:06:56.128Z,985.75
2018-01-05T02:07:36.695Z,985.73
2018-01-05T02:08:17.261Z,985.78
2018-01-05T02:08:57.840Z,985.73
2018-01-05T02:09:38.402Z,985.79
2018-01-05T02:10:18.981Z,985.77
2018-01-05T02:10:59.557Z,985.78
2018-01-05T02:11:40.128Z,985.75
2018-01-05T02:12:20.707Z,985.83
2018-01-05T02:13:01.280Z,985.82
2018-01-05T02:13:41.861Z,985.81
2018-01-05T02:14:22.422Z,985.89
2018-01-05T02:15:02.984Z,985.81
2018-01-05T02:15:43.551Z,985.89
2018-01-05T02:16:24.133Z,985.86
2018-01-05T02:17:04.696Z,985.88
2018-01-05T02:17:45.268Z,985.9
2018-01-05T02:18:25.828Z,985.88
2018-01-05T02:19:06.398Z,985.87
2018-01-05T02:19:46.962Z,985.86
2018-01-05T02:20:27.522Z,985.96
2018-01-05T02:21:08.099Z,985.9
2018-01-05T02:21:48.666Z,985.89
2018-01-05T02:22:29.225Z,985.96
2018-01-05T02:23:09.789Z,985.92
2018-01-05T02:23:50.355Z,985.94
2018-01-05T02:24:30.929Z,985.97
2018-01-05T02:25:11.499Z,985.98
2018-01-05T02:25:52.063Z,985.94
2018-01-05T02:26:32.647Z,985.97
2018-01-05T02:27:13.212Z,985.95
2018-01-05T02:27:53.780Z,985.96
2018-01-05T02:28:34.349Z,986
2018-01-05T02:29:14.916Z,985.98
2018-01-05T02:29:55.484Z,985.96
2018-01-05T02:30:36.045Z,986.03
2018-01-05T02:31:16.623Z,985.97
2018-01-05T02:31:57.186Z,985.95
2018-01-05T02:32:37.769Z,986.01
2018-01-05T02:33:18.323Z,986.03
2018-01-05T02:33:58.884Z,986
2018-01-05T02:34:39.450Z,986.04
2018-01-05T02:35:20.015Z,986.02
2018-01-05T02:36:00.585Z,986
2018-01-05T02:36:41.166Z,986.07
2018-01-05T02:37:21.732Z,986.02
2018-01-05T02:38:02.341Z,986.11
2018-01-05T02:38:42.942Z,986.16
2018-01-05T02:39:23.527Z,986.06
2018-01-05T02:40:04.096Z,986.08
2018-01-05T02:40:44.676Z,986.01
2018-01-05T02:41:25.252Z,986.01
2018-01-05T02:42:05.840Z,986.03
2018-01-05T02:42:46.410Z,986.06
2018-01-05T02:43:26.977Z,986.02
2018-01-05T02:44:07.552Z,986.06
2018-01-05T02:44:48.103Z,985.95
2018-01-05T02:45:28.691Z,986.03
2018-01-05T02:46:09.265Z,986.07
2018-01-05T02:46:49.831Z,986.05
2018-01-05T02:47:30.395Z,986.06
2018-01-05T02:48:10.963Z,986.12
2018-01-05T02:48:51.542Z,986.07
2018-01-05T02:49:32.114Z,986.1
2018-01-05T02:50:12.674Z,986.06
2018-01-05T02:50:53.244Z,986.1
2018-01-05T02:51:33.823Z,986.06
2018-01-05T02:52:14.394Z,986.02
2018-01-05T02:52:54.957Z,986.13
2018-01-05T02:53:35.536Z,986.13
2018-01-05T02:54:16.126Z,986.12
2018-01-05T02:54:56.685Z,986.12
2018-01-05T02:55:37.257Z,986.24
2018-01-05T02:56:17.832Z,986.16
2018-01-05T02:56:58.418Z,986.16
2018-01-05T02:57:39.001Z,986.18
2018-01-05T02:58:19.549Z,986.23
2018-01-05T02:59:00.118Z,986.21
2018-01-05T02:59:40.674Z,986.23
2018-01-05T03:00:21.246Z,986.22
2018-01-05T03:01:01.817Z,986.27
2018-01-05T03:01:42.380Z,986.26
2018-01-05T03:02:22.938Z,986.2
2018-01-05T03:03:03.507Z,986.23
2018-01-05T03:03:44.076Z,986.27
2018-01-05T03:04:24.655Z,986.2
2018-01-05T03:05:05.218Z,986.27
2018-01-05T03:05:45.787Z,986.12
2018-01-05T03:06:26.352Z,986.32
2018-01-05T03:07:06.939Z,986.36
2018-01-05T03:07:47.508Z,986.27
2018-01-05T03:08:28.081Z,986.37
2018-01-05T03:09:08.639Z,986.34
2018-01-05T03:09:49.212Z,986.4
2018-01-05T03:10:29.778Z,986.33
2018-01-05T03:11:10.352Z,986.39
2018-01-05T03:11:50.919Z,986.4
2018-01-05T03:12:31.498Z,986.4
2018-01-05T03:13:12.078Z,986.5
2018-01-05T03:13:52.642Z,986.45
2018-01-05T03:14:33.204Z,986.43
2018-01-05T03:15:13.766Z,986.56
2018-01-05T03:15:54.391Z,986.37
2018-01-05T03:16:34.956Z,986.5
2018-01-05T03:17:15.521Z,986.62
2018-01-05T03:17:56.089Z,986.53
2018-01-05T03:18:36.655Z,986.59
2018-01-05T03:19:17.221Z,986.6
2018-01-05T03:19:57.788Z,986.69
2018-01-05T03:20:38.343Z,986.64
2018-01-05T03:21:18.905Z,986.71
2018-01-05T03:21:59.490Z,986.69
2018-01-05T03:22:40.061Z,986.62
2018-01-05T03:23:20.629Z,986.63
2018-01-05T03:24:01.194Z,986.63
2018-01-05T03:24:41.750Z,986.63
2018-01-05T03:25:22.311Z,986.64
2018-01-05T03:26:02.886Z,986.71
2018-01-05T03:26:43.449Z,986.63
2018-01-05T03:27:24.023Z,986.65
2018-01-05T03:28:04.579Z,986.65
2018-01-05T03:28:45.147Z,986.64
2018-01-05T03:29:25.724Z,986.75
2018-01-05T03:30:06.296Z,986.8
2018-01-05T03:30:46.861Z,986.75
2018-01-05T03:31:27.421Z,986.78
2018-01-05T03:32:07.988Z,986.85
2018-01-05T03:32:48.564Z,986.87
2018-01-05T03:33:29.132Z,986.72
2018-01-05T03:34:09.697Z,986.9
2018-01-05T03:34:50.277Z,986.89
2018-01-05T03:35:30.838Z,986.92
2018-01-05T03:36:11.406Z,986.93
2018-01-05T03:36:51.977Z,986.95
2018-01-05T03:37:32.565Z,987
2018-01-05T03:38:13.138Z,987.07
2018-01-05T03:38:53.698Z,987.07
2018-01-05T03:39:34.260Z,987.01
2018-01-05T03:40:14.822Z,987.03
2018-01-05T03:40:55.375Z,987.01
2018-01-05T03:41:35.937Z,987.05
2018-01-05T03:42:16.497Z,987.08
2018-01-05T03:42:57.065Z,987.11
2018-01-05T03:43:37.637Z,987.05
2018-01-05T03:44:18.210Z,987.19
2018-01-05T03:44:58.770Z,987.12
2018-01-05T03:45:39.336Z,987.18
2018-01-05T03:46:19.902Z,987.16
2018-01-05T03:47:00.469Z,987.25
2018-01-05T03:47:41.052Z,987.17
2018-01-05T03:48:21.616Z,987.26
2018-01-05T03:49:02.187Z,987.28
2018-01-05T03:49:42.766Z,987.11
2018-01-05T03:50:23.328Z,987.26
2018-01-05T03:51:03.887Z,987.29
2018-01-05T03:51:44.458Z,987.29
2018-01-05T03:52:25.012Z,987.26
2018-01-05T03:53:05.572Z,987.37
2018-01-05T03:53:46.136Z,987.32
2018-01-05T03:54:26.691Z,987.32
2018-01-05T03:55:07.262Z,987.28
2018-01-05T03:55:47.830Z,987.36
2018-01-05T03:56:28.388Z,987.35
2018-01-05T03:57:08.970Z,987.39
2018-01-05T03:57:49.525Z,987.39
2018-01-05T03:58:30.091Z,987.46
2018-01-05T03:59:10.664Z,987.41
2018-01-05T03:59:51.235Z,987.48
2018-01-05T04:00:31.799Z,987.45
2018-01-05T04:01:12.356Z,987.47
2018-01-05T04:01:52.932Z,987.45
2018-01-05T04:02:33.494Z,987.51
2018-01-05T04:03:14.060Z,987.46
2018-01-05T04:03:54.618Z,987.51
2018-01-05T04:04:35.206Z,987.51
2018-01-05T04:05:15.826Z,987.53
2018-01-05T04:05:56.402Z,987.53
2018-01-05T04:06:36.962Z,987.51
2018-01-05T04:07:17.555Z,987.56
2018-01-05T04:07:58.128Z,987.57
2018-01-05T04:08:38.716Z,987.55
2018-01-05T04:09:19.274Z,987.58
2018-01-05T04:09:59.835Z,987.62
2018-01-05T04:10:40.463Z,987.63
2018-01-05T04:11:20.958Z,987.56
2018-01-05T04:12:01.524Z,987.61
2018-01-05T04:12:42.087Z,987.65
2018-01-05T04:13:22.671Z,987.57
2018-01-05T04:14:03.233Z,987.67
2018-01-05T04:14:43.808Z,987.57
2018-01-05T04:15:24.380Z,987.67
2018-01-05T04:16:04.952Z,987.79
2018-01-05T04:16:45.553Z,987.49
2018-01-05T04:17:26.118Z,987.73
2018-01-05T04:18:06.696Z,987.72
2018-01-05T04:18:47.273Z,987.85
2018-01-05T04:19:27.849Z,987.4
2018-01-05T04:20:08.412Z,987.64
2018-01-05T04:20:48.979Z,987.59
2018-01-05T04:21:29.540Z,987.84
2018-01-05T04:22:10.100Z,987.57
2018-01-05T04:22:50.668Z,987.52
2018-01-05T04:23:31.235Z,987.57
2018-01-05T04:24:11.805Z,987.51
2018-01-05T04:24:52.386Z,987.62
2018-01-05T04:25:32.946Z,987.63
2018-01-05T04:26:13.515Z,987.61
2018-01-05T04:26:54.117Z,987.53
2018-01-05T04:27:34.689Z,987.63
2018-01-05T04:28:15.245Z,987.6
2018-01-05T04:28:55.808Z,987.64
2018-01-05T04:29:36.390Z,987.59
2018-01-05T04:30:16.974Z,987.65
2018-01-05T04:30:57.535Z,987.64
2018-01-05T04:31:38.097Z,987.66
2018-01-05T04:32:18.664Z,987.6
2018-01-05T04:32:59.236Z,987.5
2018-01-05T04:33:39.807Z,987.51
2018-01-05T04:34:20.376Z,987.56
2018-01-05T04:35:00.945Z,987.55
2018-01-05T04:35:41.515Z,987.56
2018-01-05T04:36:22.091Z,987.47
2018-01-05T04:37:02.657Z,987.48
2018-01-05T04:37:43.237Z,987.53
2018-01-05T04:38:23.796Z,987.53
2018-01-05T04:39:04.375Z,987.57
2018-01-05T04:39:44.934Z,987.51
2018-01-05T04:40:25.490Z,987.55
2018-01-05T04:41:06.049Z,987.45
2018-01-05T04:41:46.605Z,987.48
2018-01-05T04:42:27.170Z,987.43
2018-01-05T04:43:07.737Z,987.38
2018-01-05T04:43:48.345Z,987.5
2018-01-05T04:44:28.907Z,987.44
2018-01-05T04:45:09.469Z,987.41
2018-01-05T04:45:50.032Z,987.47
2018-01-05T04:46:30.600Z,987.45
2018-01-05T04:47:11.159Z,987.46
2018-01-05T04:47:51.742Z,987.48
2018-01-05T04:48:32.305Z,987.43
2018-01-05T04:49:12.869Z,987.44
2018-01-05T04:49:53.436Z,987.46
2018-01-05T04:50:34.009Z,987.41
2018-01-05T04:51:14.574Z,987.52
2018-01-05T04:51:55.148Z,987.3
2018-01-05T04:52:35.714Z,987.39
2018-01-05T04:53:16.299Z,987.51
2018-01-05T04:53:56.884Z,987.52
2018-01-05T04:54:37.457Z,987.54
2018-01-05T04:55:18.021Z,987.57
2018-01-05T04:55:58.593Z,987.57
2018-01-05T04:56:39.161Z,987.61
2018-01-05T04:57:19.740Z,987.6
2018-01-05T04:58:00.323Z,987.57
2018-01-05T04:58:40.885Z,987.53
2018-01-05T04:59:21.471Z,987.57
2018-01-05T05:00:02.024Z,987.59
2018-01-05T05:00:42.581Z,987.62
2018-01-05T05:01:23.150Z,987.62
2018-01-05T05:02:03.724Z,987.61
2018-01-05T05:02:44.283Z,987.66
2018-01-05T05:03:24.848Z,987.64
2018-01-05T05:04:05.412Z,987.68
2018-01-05T05:04:45.981Z,987.74
2018-01-05T05:05:26.552Z,987.79
2018-01-05T05:06:07.124Z,987.73
2018-01-05T05:06:47.685Z,987.8
2018-01-05T05:07:28.247Z,987.79
2018-01-05T05:08:08.810Z,987.74
2018-01-05T05:08:49.372Z,987.76
2018-01-05T05:09:29.983Z,987.76
2018-01-05T05:10:10.553Z,987.79
2018-01-05T05:10:51.151Z,987.77
2018-01-05T05:11:31.711Z,987.82
2018-01-05T05:12:12.277Z,987.75
2018-01-05T05:12:52.851Z,987.74
2018-01-05T05:13:33.426Z,987.79
2018-01-05T05:14:13.997Z,987.75
2018-01-05T05:14:54.577Z,987.79
2018-01-05T05:15:35.141Z,987.78
2018-01-05T05:16:15.722Z,987.77
2018-01-05T05:16:56.292Z,987.83
2018-01-05T05:17:36.854Z,987.85
2018-01-05T05:18:17.420Z,987.83
2018-01-05T05:18:58.003Z,987.83
2018-01-05T05:19:38.585Z,987.87
2018-01-05T05:20:19.156Z,987.81
2018-01-05T05:20:59.717Z,987.84
2018-01-05T05:21:40.276Z,987.83
2018-01-05T05:22:20.855Z,987.84
2018-01-05T05:23:01.422Z,987.89
2018-01-05T05:23:41.992Z,987.92
2018-01-05T05:24:22.551Z,987.87
2018-01-05T05:25:03.116Z,987.78
2018-01-05T05:25:43.672Z,987.88
2018-01-05T05:26:24.244Z,987.91
2018-01-05T05:27:04.808Z,987.87
2018-01-05T05:27:45.372Z,987.88
2018-01-05T05:28:25.942Z,987.87
2018-01-05T05:29:06.515Z,987.93
2018-01-05T05:29:47.079Z,987.9
2018-01-05T05:30:27.639Z,987.86
2018-01-05T05:31:08.199Z,987.94
2018-01-05T05:31:48.768Z,987.9
2018-01-05T05:32:29.328Z,987.96
2018-01-05T05:33:09.889Z,987.93
2018-01-05T05:33:50.459Z,987.91
2018-01-05T05:34:31.029Z,987.96
2018-01-05T05:35:11.608Z,987.96
2018-01-05T05:35:52.172Z,987.99
2018-01-05T05:36:32.725Z,988.06
2018-01-05T05:37:13.277Z,988.04
2018-01-05T05:37:53.844Z,988
2018-01-05T05:38:34.407Z,987.96
2018-01-05T05:39:14.969Z,988.03
2018-01-05T05:39:55.543Z,988.01
2018-01-05T05:40:36.103Z,988.01
2018-01-05T05:41:16.659Z,988.05
2018-01-05T05:41:57.231Z,988.08
2018-01-05T05:42:37.796Z,988.05
2018-01-05T05:43:18.362Z,988.11
2018-01-05T05:43:58.947Z,988.09
2018-01-05T05:44:39.513Z,988.11
2018-01-05T05:45:20.086Z,988.06
2018-01-05T05:46:00.665Z,988.1
2018-01-05T05:46:41.250Z,988.16
2018-01-05T05:47:21.838Z,988.17
2018-01-05T05:48:02.410Z,988.17
2018-01-05T05:48:42.989Z,988.2
2018-01-05T05:49:23.572Z,988.17
2018-01-05T05:50:04.131Z,988.18
2018-01-05T05:50:44.702Z,988.21
2018-01-05T05:51:25.292Z,988.15
2018-01-05T05:52:05.881Z,988.24
2018-01-05T05:52:46.455Z,988.2
2018-01-05T05:53:27.049Z,988.26
2018-01-05T05:54:07.638Z,988.3
2018-01-05T05:54:48.213Z,988.27
2018-01-05T05:55:28.799Z,988.24
2018-01-05T05:56:09.378Z,988.25
2018-01-05T05:56:49.944Z,988.26
2018-01-05T05:57:30.560Z,988.28
2018-01-05T05:58:11.132Z,988.34
2018-01-05T05:58:51.695Z,988.36
2018-01-05T05:59:32.273Z,988.41
2018-01-05T06:00:12.853Z,988.38
2018-01-05T06:00:53.417Z,988.38
2018-01-05T06:01:33.998Z,988.33
2018-01-05T06:02:14.610Z,988.32
2018-01-05T06:02:55.202Z,988.36
2018-01-05T06:03:35.794Z,988.34
2018-01-05T06:04:16.428Z,988.35
2018-01-05T06:04:57.001Z,988.32
2018-01-05T06:05:37.557Z,988.33
2018-01-05T06:06:18.136Z,988.33
2018-01-05T06:06:58.915Z,988.34
2018-01-05T06:07:39.490Z,988.37
2018-01-05T06:08:20.054Z,988.36
2018-01-05T06:09:00.648Z,988.4
2018-01-05T06:09:41.441Z,988.38
2018-01-05T06:10:22.487Z,988.38
2018-01-05T06:11:03.061Z,988.42
2018-01-05T06:11:43.655Z,988.43
2018-01-05T06:12:24.224Z,988.5
2018-01-05T06:13:04.856Z,988.49
2018-01-05T06:13:45.416Z,988.5
2018-01-05T06:14:26.616Z,988.51
2018-01-05T06:15:07.178Z,988.52
2018-01-05T06:15:47.764Z,988.52
2018-01-05T06:16:28.350Z,988.56
2018-01-05T06:17:08.931Z,988.51
2018-01-05T06:17:49.493Z,988.54
2018-01-05T06:18:30.061Z,988.63
2018-01-05T06:19:10.644Z,988.59
2018-01-05T06:19:51.247Z,988.63
2018-01-05T06:20:31.900Z,988.61
2018-01-05T06:21:12.512Z,988.67
2018-01-05T06:21:53.101Z,988.62
2018-01-05T06:22:33.681Z,988.65
2018-01-05T06:23:14.260Z,988.63
2018-01-05T06:23:54.839Z,988.64
2018-01-05T06:24:35.408Z,988.63
2018-01-05T06:25:15.986Z,988.64
2018-01-05T06:25:56.640Z,988.61
2018-01-05T06:26:37.222Z,988.59
2018-01-05T06:27:17.793Z,988.63
2018-01-05T06:27:58.391Z,988.57
2018-01-05T06:28:38.955Z,988.57
2018-01-05T06:29:19.565Z,988.57
2018-01-05T06:30:00.141Z,988.54
2018-01-05T06:30:40.716Z,988.54
2018-01-05T06:31:21.501Z,988.56
2018-01-05T06:32:02.081Z,988.56
2018-01-05T06:32:42.701Z,988.57
2018-01-05T06:33:23.280Z,988.52
2018-01-05T06:34:03.855Z,988.55
2018-01-05T06:34:44.438Z,988.54
2018-01-05T06:35:25.016Z,988.54
2018-01-05T06:36:05.631Z,988.54
2018-01-05T06:36:47.314Z,988.53
2018-01-05T06:37:28.203Z,988.57
2018-01-05T06:38:08.788Z,988.57
2018-01-05T06:38:49.406Z,988.56
2018-01-05T06:39:29.995Z,988.6
2018-01-05T06:40:10.593Z,988.59
2018-01-05T06:40:51.164Z,988.59
2018-01-05T06:41:31.761Z,988.59
2018-01-05T06:42:12.326Z,988.54
2018-01-05T06:42:52.888Z,988.6
2018-01-05T06:43:33.454Z,988.58
2018-01-05T06:44:14.028Z,988.59
2018-01-05T06:44:54.657Z,988.64
2018-01-05T06:45:35.228Z,988.64
2018-01-05T06:46:16.487Z,988.65
2018-01-05T06:46:57.077Z,988.69
2018-01-05T06:47:37.669Z,988.67
2018-01-05T06:48:18.273Z,988.7
2018-01-05T06:48:58.849Z,988.73
2018-01-05T06:49:39.447Z,988.7
2018-01-05T06:50:20.060Z,988.74
2018-01-05T06:51:00.648Z,988.72
2018-01-05T06:51:41.245Z,988.74
2018-01-05T06:52:21.806Z,988.8
2018-01-05T06:53:02.389Z,988.81
2018-01-05T06:53:42.974Z,988.8
2018-01-05T06:54:23.554Z,988.89
2018-01-05T06:55:04.122Z,988.83
2018-01-05T06:55:44.687Z,988.86
2018-01-05T06:56:25.300Z,988.84
2018-01-05T06:57:05.949Z,988.88
2018-01-05T06:57:46.584Z,988.87
2018-01-05T06:58:27.206Z,988.91
2018-01-05T06:59:07.823Z,988.91
2018-01-05T06:59:48.389Z,988.86
2018-01-05T07:00:28.969Z,988.89
2018-01-05T07:01:09.532Z,988.9
2018-01-05T07:01:50.110Z,988.88
2018-01-05T07:02:30.692Z,988.9
2018-01-05T07:03:11.291Z,988.91
2018-01-05T07:03:51.873Z,988.88
2018-01-05T07:04:32.459Z,988.92
2018-01-05T07:05:13.054Z,988.88
2018-01-05T07:05:53.652Z,988.91
2018-01-05T07:06:34.221Z,988.95
2018-01-05T07:07:14.832Z,989
2018-01-05T07:07:55.444Z,989.01
2018-01-05T07:08:36.027Z,989.02
2018-01-05T07:09:16.678Z,988.99
2018-01-05T07:09:57.238Z,989.02
2018-01-05T07:10:37.810Z,989.01
2018-01-05T07:11:18.379Z,988.99
2018-01-05T07:11:58.949Z,988.96
2018-01-05T07:12:39.537Z,988.93
2018-01-05T07:13:20.130Z,988.98
2018-01-05T07:14:00.711Z,988.92
2018-01-05T07:14:41.324Z,988.94
2018-01-05T07:15:21.894Z,988.92
2018-01-05T07:16:02.458Z,988.96
2018-01-05T07:16:43.024Z,989
2018-01-05T07:17:23.644Z,988.99
2018-01-05T07:18:04.219Z,989
2018-01-05T07:18:44.802Z,988.97
2018-01-05T07:19:25.456Z,989.03
2018-01-05T07:20:06.043Z,989
2018-01-05T07:20:46.617Z,988.97
2018-01-05T07:21:27.219Z,989.02
2018-01-05T07:22:07.804Z,989.02
2018-01-05T07:22:48.404Z,989.01
2018-01-05T07:23:28.974Z,989
2018-01-05T07:24:09.594Z,989.02
2018-01-05T07:24:50.197Z,988.99
2018-01-05T07:25:30.789Z,989.04
2018-01-05T07:26:11.382Z,989
2018-01-05T07:26:52.025Z,989.04
2018-01-05T07:29:20.872Z,989
2018-01-05T07:30:01.437Z,988.99
2018-01-05T07:30:42.015Z,989.01
2018-01-05T07:31:22.623Z,988.97
2018-01-05T07:32:03.220Z,988.93
2018-01-05T07:32:43.804Z,989.01
2018-01-05T07:33:24.375Z,989.06
2018-01-05T07:34:04.933Z,989.07
2018-01-05T07:34:45.499Z,989.02
2018-01-05T07:35:26.082Z,988.98
2018-01-05T07:36:06.636Z,989.03
2018-01-05T07:36:47.331Z,989.02
2018-01-05T07:37:27.900Z,989.05
2018-01-05T07:38:08.469Z,989.09
2018-01-05T07:38:49.058Z,989.06
2018-01-05T07:39:29.640Z,989.06
2018-01-05T07:40:10.288Z,989.1
2018-01-05T07:40:50.864Z,989.03
2018-01-05T07:41:31.431Z,989.01
2018-01-05T07:42:12.002Z,989.13
2018-01-05T07:42:52.565Z,989.03
2018-01-05T07:43:33.155Z,989.07
2018-01-05T07:44:13.727Z,989.04
2018-01-05T07:44:54.333Z,989.09
2018-01-05T07:45:34.918Z,989.06
2018-01-05T07:46:15.520Z,989.08
2018-01-05T07:46:56.085Z,989.13
2018-01-05T07:47:36.661Z,989.08
2018-01-05T07:48:17.268Z,989.09
2018-01-05T07:48:57.884Z,989.09
2018-01-05T07:49:38.453Z,989.11
2018-01-05T07:50:19.033Z,989.15
2018-01-05T07:50:59.629Z,989.16
2018-01-05T07:51:40.199Z,989.14
2018-01-05T07:52:20.771Z,989.1
2018-01-05T07:53:01.390Z,989.14
2018-01-05T07:53:41.990Z,989.14
2018-01-05T07:54:22.586Z,989.14
2018-01-05T07:55:03.163Z,989.15
2018-01-05T07:55:43.763Z,989.14
2018-01-05T07:56:24.344Z,989.14
2018-01-05T07:57:04.932Z,989.18
2018-01-05T07:57:45.521Z,989.19
2018-01-05T07:58:26.139Z,989.15
2018-01-05T07:59:06.720Z,989.14
2018-01-05T07:59:47.311Z,989.08
2018-01-05T08:00:27.884Z,989.17
2018-01-05T08:01:08.471Z,989.11
2018-01-05T08:01:49.089Z,989.12
2018-01-05T08:02:29.615Z,989.15
2018-01-05T08:03:10.174Z,989.13
2018-01-05T08:03:50.760Z,989.18
2018-01-05T08:04:31.331Z,989.14
2018-01-05T08:05:11.889Z,989.19
2018-01-05T08:05:52.486Z,989.16
2018-01-05T08:06:33.097Z,989.23
2018-01-05T08:07:13.680Z,989.23
2018-01-05T08:07:54.241Z,989.22
2018-01-05T08:08:34.810Z,989.24
2018-01-05T08:09:15.410Z,989.25
2018-01-05T08:09:55.983Z,989.3
2018-01-05T08:10:36.599Z,989.28
2018-01-05T08:11:17.185Z,989.25
2018-01-05T08:11:57.755Z,989.24
2018-01-05T08:12:38.351Z,989.2
2018-01-05T08:13:18.920Z,989.2
2018-01-05T08:13:59.497Z,989.16
2018-01-05T08:14:40.085Z,989.19
2018-01-05T08:15:20.657Z,989.13
2018-01-05T08:16:01.221Z,989.17
2018-01-05T08:16:41.799Z,989.16
2018-01-05T08:17:22.367Z,989.18
2018-01-05T08:18:02.955Z,989.15
2018-01-05T08:18:43.575Z,989.16
2018-01-05T08:19:24.168Z,989.13
2018-01-05T08:20:04.729Z,989.21
2018-01-05T08:20:45.293Z,989.2
2018-01-05T08:21:25.874Z,989.19
2018-01-05T08:22:06.478Z,989.18
2018-01-05T08:22:47.103Z,989.2
2018-01-05T08:23:27.651Z,989.12
2018-01-05T08:24:08.295Z,989.15
2018-01-05T08:24:48.907Z,989.22
2018-01-05T08:25:29.495Z,989.22
2018-01-05T08:26:10.064Z,989.19
2018-01-05T08:26:50.659Z,989.21
2018-01-05T08:27:31.305Z,989.14
2018-01-05T08:28:11.865Z,989.15
2018-01-05T08:28:52.458Z,989.14
2018-01-05T08:29:33.058Z,989.12
2018-01-05T08:30:13.649Z,989.13